sensor_id;sensor_type;location;lat;lon;timestamp;P1;durP1;ratioP1;P2;durP2;ratioP2
55539;SDS011;41384;51.418;7.286;2022-12-29T00:01:49;1.50;;;1.10;;
55539;SDS011;41384;51.418;7.286;2022-12-29T00:04:15;0.88;;;0.88;;
55539;SDS011;41384;51.418;7.286;2022-12-29T00:06:40;1.70;;;1.10;;
55539;SDS011;41384;51.418;7.286;2022-12-29T00:09:07;1.83;;;1.00;;
55539;SDS011;41384;51.418;7.286;2022-12-29T00:11:32;1.67;;;1.20;;
55539;SDS011;41384;51.418;7.286;2022-12-29T00:13:58;2.28;;;0.90;;
55539;SDS011;41384;51.418;7.286;2022-12-29T00:16:42;1.17;;;0.95;;
55539;SDS011;41384;51.418;7.286;2022-12-29T00:19:09;1.23;;;0.80;;
55539;SDS011;41384;51.418;7.286;2022-12-29T00:21:55;2.72;;;1.05;;
55539;SDS011;41384;51.418;7.286;2022-12-29T00:24:39;1.30;;;1.00;;
55539;SDS011;41384;51.418;7.286;2022-12-29T00:27:23;1.50;;;1.05;;
55539;SDS011;41384;51.418;7.286;2022-12-29T00:30:10;1.77;;;0.85;;
55539;SDS011;41384;51.418;7.286;2022-12-29T00:32:56;1.30;;;0.93;;
55539;SDS011;41384;51.418;7.286;2022-12-29T00:35:50;1.23;;;0.80;;
55539;SDS011;41384;51.418;7.286;2022-12-29T00:38:17;0.90;;;0.75;;
55539;SDS011;41384;51.418;7.286;2022-12-29T00:41:01;1.35;;;0.70;;
55539;SDS011;41384;51.418;7.286;2022-12-29T00:43:46;0.63;;;0.60;;
55539;SDS011;41384;51.418;7.286;2022-12-29T00:46:37;1.83;;;0.70;;
55539;SDS011;41384;51.418;7.286;2022-12-29T00:49:05;0.70;;;0.70;;
55539;SDS011;41384;51.418;7.286;2022-12-29T00:51:50;0.73;;;0.60;;
55539;SDS011;41384;51.418;7.286;2022-12-29T00:54:16;0.60;;;0.60;;
55539;SDS011;41384;51.418;7.286;2022-12-29T00:56:42;2.70;;;0.63;;
55539;SDS011;41384;51.418;7.286;2022-12-29T00:59:08;0.70;;;0.70;;
55539;SDS011;41384;51.418;7.286;2022-12-29T01:01:35;0.50;;;0.50;;
55539;SDS011;41384;51.418;7.286;2022-12-29T01:04:02;0.50;;;0.50;;
55539;SDS011;41384;51.418;7.286;2022-12-29T01:06:28;1.10;;;0.50;;
55539;SDS011;41384;51.418;7.286;2022-12-29T01:08:53;0.63;;;0.50;;
55539;SDS011;41384;51.418;7.286;2022-12-29T01:11:37;0.80;;;0.60;;
55539;SDS011;41384;51.418;7.286;2022-12-29T01:14:03;0.55;;;0.55;;
55539;SDS011;41384;51.418;7.286;2022-12-29T01:16:29;0.70;;;0.65;;
55539;SDS011;41384;51.418;7.286;2022-12-29T01:18:55;2.10;;;0.60;;
55539;SDS011;41384;51.418;7.286;2022-12-29T01:21:20;0.80;;;0.52;;
55539;SDS011;41384;51.418;7.286;2022-12-29T01:23:45;0.35;;;0.35;;
55539;SDS011;41384;51.418;7.286;2022-12-29T01:26:11;0.50;;;0.50;;
55539;SDS011;41384;51.418;7.286;2022-12-29T01:28:38;0.85;;;0.50;;
55539;SDS011;41384;51.418;7.286;2022-12-29T01:31:05;0.40;;;0.40;;
55539;SDS011;41384;51.418;7.286;2022-12-29T01:33:30;1.00;;;0.47;;
55539;SDS011;41384;51.418;7.286;2022-12-29T01:35:59;0.65;;;0.50;;
55539;SDS011;41384;51.418;7.286;2022-12-29T01:38:25;0.35;;;0.35;;
55539;SDS011;41384;51.418;7.286;2022-12-29T01:40:51;0.40;;;0.40;;
55539;SDS011;41384;51.418;7.286;2022-12-29T01:43:16;0.40;;;0.40;;
55539;SDS011;41384;51.418;7.286;2022-12-29T01:45:43;0.45;;;0.40;;
55539;SDS011;41384;51.418;7.286;2022-12-29T01:48:13;0.52;;;0.50;;
55539;SDS011;41384;51.418;7.286;2022-12-29T01:50:39;0.25;;;0.22;;
55539;SDS011;41384;51.418;7.286;2022-12-29T01:53:31;0.40;;;0.40;;
55539;SDS011;41384;51.418;7.286;2022-12-29T01:55:58;0.60;;;0.45;;
55539;SDS011;41384;51.418;7.286;2022-12-29T01:58:28;0.50;;;0.40;;
55539;SDS011;41384;51.418;7.286;2022-12-29T02:00:57;0.30;;;0.30;;
55539;SDS011;41384;51.418;7.286;2022-12-29T02:03:23;0.40;;;0.40;;
55539;SDS011;41384;51.418;7.286;2022-12-29T02:06:05;0.30;;;0.30;;
55539;SDS011;41384;51.418;7.286;2022-12-29T02:08:35;1.02;;;0.40;;
55539;SDS011;41384;51.418;7.286;2022-12-29T02:11:02;0.30;;;0.30;;
55539;SDS011;41384;51.418;7.286;2022-12-29T02:13:28;0.40;;;0.40;;
55539;SDS011;41384;51.418;7.286;2022-12-29T02:21:49;0.32;;;0.32;;
55539;SDS011;41384;51.418;7.286;2022-12-29T02:24:37;0.55;;;0.40;;
55539;SDS011;41384;51.418;7.286;2022-12-29T02:30:16;0.40;;;0.40;;
55539;SDS011;41384;51.418;7.286;2022-12-29T02:32:55;1.38;;;0.38;;
55539;SDS011;41384;51.418;7.286;2022-12-29T02:35:36;0.40;;;0.40;;
55539;SDS011;41384;51.418;7.286;2022-12-29T02:40:51;0.50;;;0.40;;
55539;SDS011;41384;51.418;7.286;2022-12-29T02:43:24;0.20;;;0.20;;
55539;SDS011;41384;51.418;7.286;2022-12-29T02:46:10;1.35;;;0.30;;
55539;SDS011;41384;51.418;7.286;2022-12-29T02:48:51;1.67;;;0.40;;
55539;SDS011;41384;51.418;7.286;2022-12-29T02:51:21;0.73;;;0.60;;
55539;SDS011;41384;51.418;7.286;2022-12-29T02:53:52;0.82;;;0.55;;
55539;SDS011;41384;51.418;7.286;2022-12-29T02:56:37;0.80;;;0.40;;
55539;SDS011;41384;51.418;7.286;2022-12-29T02:59:03;0.40;;;0.30;;
55539;SDS011;41384;51.418;7.286;2022-12-29T03:06:39;0.80;;;0.50;;
55539;SDS011;41384;51.418;7.286;2022-12-29T03:09:31;0.50;;;0.50;;
55539;SDS011;41384;51.418;7.286;2022-12-29T03:15:24;1.98;;;0.50;;
55539;SDS011;41384;51.418;7.286;2022-12-29T03:18:24;0.50;;;0.50;;
55539;SDS011;41384;51.418;7.286;2022-12-29T03:21:00;2.05;;;0.50;;
55539;SDS011;41384;51.418;7.286;2022-12-29T03:23:32;1.17;;;0.45;;
55539;SDS011;41384;51.418;7.286;2022-12-29T03:26:01;0.63;;;0.40;;
55539;SDS011;41384;51.418;7.286;2022-12-29T03:28:34;2.13;;;0.68;;
55539;SDS011;41384;51.418;7.286;2022-12-29T03:31:03;0.40;;;0.40;;
55539;SDS011;41384;51.418;7.286;2022-12-29T03:33:31;1.55;;;0.50;;
55539;SDS011;41384;51.418;7.286;2022-12-29T03:35:59;0.80;;;0.50;;
55539;SDS011;41384;51.418;7.286;2022-12-29T03:38:42;0.57;;;0.57;;
55539;SDS011;41384;51.418;7.286;2022-12-29T03:41:12;1.70;;;0.47;;
55539;SDS011;41384;51.418;7.286;2022-12-29T03:43:42;0.70;;;0.60;;
55539;SDS011;41384;51.418;7.286;2022-12-29T03:46:07;0.93;;;0.50;;
55539;SDS011;41384;51.418;7.286;2022-12-29T03:48:32;1.67;;;0.70;;
55539;SDS011;41384;51.418;7.286;2022-12-29T03:50:58;1.20;;;0.52;;
55539;SDS011;41384;51.418;7.286;2022-12-29T03:53:23;1.98;;;0.80;;
55539;SDS011;41384;51.418;7.286;2022-12-29T03:55:49;0.50;;;0.50;;
55539;SDS011;41384;51.418;7.286;2022-12-29T03:58:14;0.95;;;0.68;;
55539;SDS011;41384;51.418;7.286;2022-12-29T04:00:39;1.10;;;0.60;;
55539;SDS011;41384;51.418;7.286;2022-12-29T04:03:04;0.80;;;0.50;;
55539;SDS011;41384;51.418;7.286;2022-12-29T04:05:30;0.88;;;0.60;;
55539;SDS011;41384;51.418;7.286;2022-12-29T04:07:56;0.75;;;0.40;;
55539;SDS011;41384;51.418;7.286;2022-12-29T04:10:21;1.55;;;0.43;;
55539;SDS011;41384;51.418;7.286;2022-12-29T04:12:46;0.70;;;0.50;;
55539;SDS011;41384;51.418;7.286;2022-12-29T04:15:12;1.80;;;0.50;;
55539;SDS011;41384;51.418;7.286;2022-12-29T04:17:37;0.60;;;0.45;;
55539;SDS011;41384;51.418;7.286;2022-12-29T04:20:03;0.57;;;0.55;;
55539;SDS011;41384;51.418;7.286;2022-12-29T04:22:47;0.70;;;0.38;;
55539;SDS011;41384;51.418;7.286;2022-12-29T04:25:13;0.47;;;0.47;;
55539;SDS011;41384;51.418;7.286;2022-12-29T04:27:38;0.57;;;0.57;;
55539;SDS011;41384;51.418;7.286;2022-12-29T04:30:03;1.05;;;0.55;;
55539;SDS011;41384;51.418;7.286;2022-12-29T04:32:29;1.08;;;0.50;;
55539;SDS011;41384;51.418;7.286;2022-12-29T04:34:54;0.98;;;0.60;;
55539;SDS011;41384;51.418;7.286;2022-12-29T04:37:20;0.80;;;0.50;;
55539;SDS011;41384;51.418;7.286;2022-12-29T04:39:45;0.85;;;0.50;;
55539;SDS011;41384;51.418;7.286;2022-12-29T04:42:10;0.43;;;0.30;;
55539;SDS011;41384;51.418;7.286;2022-12-29T04:44:35;0.43;;;0.40;;
55539;SDS011;41384;51.418;7.286;2022-12-29T04:47:01;1.65;;;0.60;;
55539;SDS011;41384;51.418;7.286;2022-12-29T04:49:26;0.60;;;0.50;;
55539;SDS011;41384;51.418;7.286;2022-12-29T04:51:51;0.35;;;0.35;;
55539;SDS011;41384;51.418;7.286;2022-12-29T04:54:16;0.40;;;0.32;;
55539;SDS011;41384;51.418;7.286;2022-12-29T04:56:41;2.75;;;0.40;;
55539;SDS011;41384;51.418;7.286;2022-12-29T04:59:07;0.63;;;0.50;;
55539;SDS011;41384;51.418;7.286;2022-12-29T05:01:32;1.05;;;0.50;;
55539;SDS011;41384;51.418;7.286;2022-12-29T05:03:57;0.40;;;0.40;;
55539;SDS011;41384;51.418;7.286;2022-12-29T05:06:22;2.60;;;0.40;;
55539;SDS011;41384;51.418;7.286;2022-12-29T05:08:48;1.45;;;0.40;;
55539;SDS011;41384;51.418;7.286;2022-12-29T05:11:13;1.33;;;0.50;;
55539;SDS011;41384;51.418;7.286;2022-12-29T05:13:38;0.43;;;0.40;;
55539;SDS011;41384;51.418;7.286;2022-12-29T05:16:04;0.40;;;0.40;;
55539;SDS011;41384;51.418;7.286;2022-12-29T05:18:29;1.08;;;0.50;;
55539;SDS011;41384;51.418;7.286;2022-12-29T05:20:54;1.17;;;0.40;;
55539;SDS011;41384;51.418;7.286;2022-12-29T05:23:20;0.57;;;0.47;;
55539;SDS011;41384;51.418;7.286;2022-12-29T05:25:45;2.78;;;0.50;;
55539;SDS011;41384;51.418;7.286;2022-12-29T05:28:10;1.25;;;0.50;;
55539;SDS011;41384;51.418;7.286;2022-12-29T05:30:36;3.05;;;0.70;;
55539;SDS011;41384;51.418;7.286;2022-12-29T05:33:01;0.77;;;0.60;;
55539;SDS011;41384;51.418;7.286;2022-12-29T05:35:26;1.88;;;0.52;;
55539;SDS011;41384;51.418;7.286;2022-12-29T05:37:51;0.88;;;0.40;;
55539;SDS011;41384;51.418;7.286;2022-12-29T05:40:17;2.53;;;0.73;;
55539;SDS011;41384;51.418;7.286;2022-12-29T05:42:42;0.40;;;0.40;;
55539;SDS011;41384;51.418;7.286;2022-12-29T05:45:07;1.48;;;0.60;;
55539;SDS011;41384;51.418;7.286;2022-12-29T05:47:33;1.60;;;0.60;;
55539;SDS011;41384;51.418;7.286;2022-12-29T05:49:59;1.85;;;0.60;;
55539;SDS011;41384;51.418;7.286;2022-12-29T05:52:24;0.77;;;0.43;;
55539;SDS011;41384;51.418;7.286;2022-12-29T05:54:50;2.03;;;0.47;;
55539;SDS011;41384;51.418;7.286;2022-12-29T05:57:15;1.23;;;0.47;;
55539;SDS011;41384;51.418;7.286;2022-12-29T05:59:40;2.97;;;0.52;;
55539;SDS011;41384;51.418;7.286;2022-12-29T06:02:06;0.93;;;0.50;;
55539;SDS011;41384;51.418;7.286;2022-12-29T06:04:31;0.60;;;0.50;;
55539;SDS011;41384;51.418;7.286;2022-12-29T06:06:56;1.10;;;0.40;;
55539;SDS011;41384;51.418;7.286;2022-12-29T06:09:21;2.65;;;0.47;;
55539;SDS011;41384;51.418;7.286;2022-12-29T06:11:47;1.52;;;0.77;;
55539;SDS011;41384;51.418;7.286;2022-12-29T06:14:12;0.70;;;0.50;;
55539;SDS011;41384;51.418;7.286;2022-12-29T06:16:37;0.52;;;0.50;;
55539;SDS011;41384;51.418;7.286;2022-12-29T06:19:02;1.70;;;0.70;;
55539;SDS011;41384;51.418;7.286;2022-12-29T06:21:28;1.30;;;0.40;;
55539;SDS011;41384;51.418;7.286;2022-12-29T06:23:53;3.10;;;0.70;;
55539;SDS011;41384;51.418;7.286;2022-12-29T06:26:18;0.90;;;0.50;;
55539;SDS011;41384;51.418;7.286;2022-12-29T06:28:43;2.97;;;0.50;;
55539;SDS011;41384;51.418;7.286;2022-12-29T06:31:09;0.45;;;0.40;;
55539;SDS011;41384;51.418;7.286;2022-12-29T06:33:35;3.78;;;0.60;;
55539;SDS011;41384;51.418;7.286;2022-12-29T06:36:00;0.60;;;0.45;;
55539;SDS011;41384;51.418;7.286;2022-12-29T06:38:26;1.75;;;0.70;;
55539;SDS011;41384;51.418;7.286;2022-12-29T06:40:51;1.10;;;0.60;;
55539;SDS011;41384;51.418;7.286;2022-12-29T06:43:16;0.52;;;0.45;;
55539;SDS011;41384;51.418;7.286;2022-12-29T06:45:42;2.30;;;0.50;;
55539;SDS011;41384;51.418;7.286;2022-12-29T06:48:07;1.58;;;0.40;;
55539;SDS011;41384;51.418;7.286;2022-12-29T06:50:33;1.88;;;0.50;;
55539;SDS011;41384;51.418;7.286;2022-12-29T06:52:58;1.73;;;0.60;;
55539;SDS011;41384;51.418;7.286;2022-12-29T06:55:23;2.35;;;0.50;;
55539;SDS011;41384;51.418;7.286;2022-12-29T06:57:49;2.13;;;0.55;;
55539;SDS011;41384;51.418;7.286;2022-12-29T07:00:14;2.05;;;0.60;;
55539;SDS011;41384;51.418;7.286;2022-12-29T07:02:39;1.42;;;0.57;;
55539;SDS011;41384;51.418;7.286;2022-12-29T07:05:05;1.83;;;0.47;;
55539;SDS011;41384;51.418;7.286;2022-12-29T07:07:32;2.15;;;0.50;;
55539;SDS011;41384;51.418;7.286;2022-12-29T07:09:57;1.20;;;0.45;;
55539;SDS011;41384;51.418;7.286;2022-12-29T07:12:22;1.38;;;0.68;;
55539;SDS011;41384;51.418;7.286;2022-12-29T07:14:49;1.40;;;0.50;;
55539;SDS011;41384;51.418;7.286;2022-12-29T07:17:14;1.70;;;0.50;;
55539;SDS011;41384;51.418;7.286;2022-12-29T07:19:39;3.00;;;0.50;;
55539;SDS011;41384;51.418;7.286;2022-12-29T07:22:05;2.90;;;0.50;;
55539;SDS011;41384;51.418;7.286;2022-12-29T07:24:30;3.90;;;0.60;;
55539;SDS011;41384;51.418;7.286;2022-12-29T07:26:56;1.90;;;0.50;;
55539;SDS011;41384;51.418;7.286;2022-12-29T07:29:21;2.22;;;0.50;;
55539;SDS011;41384;51.418;7.286;2022-12-29T07:31:46;1.52;;;0.50;;
55539;SDS011;41384;51.418;7.286;2022-12-29T07:34:12;3.55;;;0.77;;
55539;SDS011;41384;51.418;7.286;2022-12-29T07:36:37;1.60;;;0.55;;
55539;SDS011;41384;51.418;7.286;2022-12-29T07:39:02;1.60;;;0.40;;
55539;SDS011;41384;51.418;7.286;2022-12-29T07:41:28;1.23;;;0.50;;
55539;SDS011;41384;51.418;7.286;2022-12-29T07:43:53;2.13;;;0.45;;
55539;SDS011;41384;51.418;7.286;2022-12-29T07:46:19;1.63;;;0.50;;
55539;SDS011;41384;51.418;7.286;2022-12-29T07:48:44;1.90;;;0.70;;
55539;SDS011;41384;51.418;7.286;2022-12-29T07:51:09;1.13;;;0.43;;
55539;SDS011;41384;51.418;7.286;2022-12-29T07:53:35;3.00;;;0.65;;
55539;SDS011;41384;51.418;7.286;2022-12-29T07:56:00;1.83;;;0.55;;
55539;SDS011;41384;51.418;7.286;2022-12-29T07:58:25;1.10;;;0.60;;
55539;SDS011;41384;51.418;7.286;2022-12-29T08:00:56;2.75;;;0.60;;
55539;SDS011;41384;51.418;7.286;2022-12-29T08:03:22;1.70;;;0.40;;
55539;SDS011;41384;51.418;7.286;2022-12-29T08:05:48;1.95;;;0.85;;
55539;SDS011;41384;51.418;7.286;2022-12-29T08:08:14;1.95;;;0.73;;
55539;SDS011;41384;51.418;7.286;2022-12-29T08:10:42;1.63;;;0.52;;
55539;SDS011;41384;51.418;7.286;2022-12-29T08:13:07;1.55;;;0.45;;
55539;SDS011;41384;51.418;7.286;2022-12-29T08:15:32;2.78;;;0.68;;
55539;SDS011;41384;51.418;7.286;2022-12-29T08:17:58;3.05;;;0.70;;
55539;SDS011;41384;51.418;7.286;2022-12-29T08:20:23;2.83;;;0.73;;
55539;SDS011;41384;51.418;7.286;2022-12-29T08:22:48;3.55;;;0.63;;
55539;SDS011;41384;51.418;7.286;2022-12-29T08:25:13;4.43;;;0.75;;
55539;SDS011;41384;51.418;7.286;2022-12-29T08:27:39;2.95;;;0.75;;
55539;SDS011;41384;51.418;7.286;2022-12-29T08:30:04;4.70;;;1.02;;
55539;SDS011;41384;51.418;7.286;2022-12-29T08:32:30;4.60;;;0.65;;
55539;SDS011;41384;51.418;7.286;2022-12-29T08:34:56;2.40;;;0.55;;
55539;SDS011;41384;51.418;7.286;2022-12-29T08:37:21;2.47;;;0.70;;
55539;SDS011;41384;51.418;7.286;2022-12-29T08:39:47;3.25;;;0.70;;
55539;SDS011;41384;51.418;7.286;2022-12-29T08:42:12;6.45;;;1.30;;
55539;SDS011;41384;51.418;7.286;2022-12-29T08:44:37;2.88;;;0.77;;
55539;SDS011;41384;51.418;7.286;2022-12-29T08:47:03;2.05;;;0.77;;
55539;SDS011;41384;51.418;7.286;2022-12-29T08:49:28;3.92;;;0.70;;
55539;SDS011;41384;51.418;7.286;2022-12-29T08:51:53;2.75;;;0.70;;
55539;SDS011;41384;51.418;7.286;2022-12-29T08:54:18;2.40;;;0.57;;
55539;SDS011;41384;51.418;7.286;2022-12-29T08:56:44;3.63;;;0.77;;
55539;SDS011;41384;51.418;7.286;2022-12-29T08:59:09;2.80;;;0.70;;
55539;SDS011;41384;51.418;7.286;2022-12-29T09:01:35;3.78;;;0.80;;
55539;SDS011;41384;51.418;7.286;2022-12-29T09:04:01;5.32;;;0.88;;
55539;SDS011;41384;51.418;7.286;2022-12-29T09:06:27;1.70;;;0.75;;
55539;SDS011;41384;51.418;7.286;2022-12-29T09:08:53;4.65;;;0.75;;
55539;SDS011;41384;51.418;7.286;2022-12-29T09:11:20;4.18;;;1.10;;
55539;SDS011;41384;51.418;7.286;2022-12-29T09:13:47;2.75;;;0.90;;
55539;SDS011;41384;51.418;7.286;2022-12-29T09:16:13;4.90;;;1.10;;
55539;SDS011;41384;51.418;7.286;2022-12-29T09:18:39;1.40;;;0.70;;
55539;SDS011;41384;51.418;7.286;2022-12-29T09:21:05;6.80;;;0.95;;
55539;SDS011;41384;51.418;7.286;2022-12-29T09:23:31;5.55;;;0.95;;
55539;SDS011;41384;51.418;7.286;2022-12-29T09:25:57;4.13;;;0.75;;
55539;SDS011;41384;51.418;7.286;2022-12-29T09:28:23;3.08;;;0.65;;
55539;SDS011;41384;51.418;7.286;2022-12-29T09:30:48;6.88;;;1.20;;
55539;SDS011;41384;51.418;7.286;2022-12-29T09:33:14;2.42;;;0.60;;
55539;SDS011;41384;51.418;7.286;2022-12-29T09:35:42;1.17;;;0.60;;
55539;SDS011;41384;51.418;7.286;2022-12-29T09:38:09;3.33;;;0.70;;
55539;SDS011;41384;51.418;7.286;2022-12-29T09:40:35;3.92;;;0.70;;
55539;SDS011;41384;51.418;7.286;2022-12-29T09:51:33;6.57;;;0.70;;
55539;SDS011;41384;51.418;7.286;2022-12-29T09:54:04;1.13;;;0.50;;
55539;SDS011;41384;51.418;7.286;2022-12-29T09:56:38;4.25;;;0.80;;
55539;SDS011;41384;51.418;7.286;2022-12-29T09:59:05;4.82;;;0.70;;
55539;SDS011;41384;51.418;7.286;2022-12-29T10:01:46;2.95;;;0.82;;
55539;SDS011;41384;51.418;7.286;2022-12-29T10:04:22;5.10;;;0.93;;
55539;SDS011;41384;51.418;7.286;2022-12-29T10:06:57;2.53;;;0.80;;
55539;SDS011;41384;51.418;7.286;2022-12-29T10:14:58;3.70;;;1.10;;
55539;SDS011;41384;51.418;7.286;2022-12-29T10:23:19;3.13;;;1.10;;
55539;SDS011;41384;51.418;7.286;2022-12-29T10:25:53;3.10;;;1.02;;
55539;SDS011;41384;51.418;7.286;2022-12-29T10:28:24;38.80;;;2.47;;
55539;SDS011;41384;51.418;7.286;2022-12-29T10:31:01;2.83;;;0.60;;
55539;SDS011;41384;51.418;7.286;2022-12-29T10:33:36;3.33;;;0.85;;
55539;SDS011;41384;51.418;7.286;2022-12-29T10:36:13;6.55;;;1.30;;
55539;SDS011;41384;51.418;7.286;2022-12-29T10:41:40;3.00;;;1.00;;
55539;SDS011;41384;51.418;7.286;2022-12-29T10:44:13;2.03;;;0.70;;
55539;SDS011;41384;51.418;7.286;2022-12-29T10:46:40;3.20;;;1.02;;
55539;SDS011;41384;51.418;7.286;2022-12-29T10:49:12;3.60;;;0.95;;
55539;SDS011;41384;51.418;7.286;2022-12-29T10:51:42;3.45;;;0.90;;
55539;SDS011;41384;51.418;7.286;2022-12-29T10:54:53;3.67;;;0.60;;
55539;SDS011;41384;51.418;7.286;2022-12-29T10:57:30;5.35;;;0.88;;
55539;SDS011;41384;51.418;7.286;2022-12-29T10:59:58;3.72;;;0.77;;
55539;SDS011;41384;51.418;7.286;2022-12-29T11:08:08;2.60;;;0.70;;
55539;SDS011;41384;51.418;7.286;2022-12-29T11:10:37;7.87;;;0.83;;
55539;SDS011;41384;51.418;7.286;2022-12-29T11:13:17;3.20;;;0.80;;
55539;SDS011;41384;51.418;7.286;2022-12-29T11:15:50;3.90;;;0.90;;
55539;SDS011;41384;51.418;7.286;2022-12-29T11:18:23;4.32;;;0.60;;
55539;SDS011;41384;51.418;7.286;2022-12-29T11:20:58;4.40;;;1.05;;
55539;SDS011;41384;51.418;7.286;2022-12-29T11:23:27;3.53;;;0.82;;
55539;SDS011;41384;51.418;7.286;2022-12-29T11:26:06;4.85;;;0.63;;
55539;SDS011;41384;51.418;7.286;2022-12-29T11:28:31;4.78;;;0.55;;
55539;SDS011;41384;51.418;7.286;2022-12-29T11:31:01;4.75;;;0.90;;
55539;SDS011;41384;51.418;7.286;2022-12-29T11:33:28;4.60;;;0.77;;
55539;SDS011;41384;51.418;7.286;2022-12-29T11:35:57;3.10;;;0.75;;
55539;SDS011;41384;51.418;7.286;2022-12-29T11:40:58;3.40;;;0.70;;
55539;SDS011;41384;51.418;7.286;2022-12-29T11:43:30;3.83;;;0.73;;
55539;SDS011;41384;51.418;7.286;2022-12-29T11:45:59;5.43;;;1.00;;
55539;SDS011;41384;51.418;7.286;2022-12-29T11:48:25;4.63;;;0.80;;
55539;SDS011;41384;51.418;7.286;2022-12-29T11:50:55;3.75;;;1.33;;
55539;SDS011;41384;51.418;7.286;2022-12-29T11:53:32;4.75;;;1.15;;
55539;SDS011;41384;51.418;7.286;2022-12-29T11:56:15;5.20;;;1.00;;
55539;SDS011;41384;51.418;7.286;2022-12-29T11:58:43;4.05;;;0.73;;
55539;SDS011;41384;51.418;7.286;2022-12-29T12:01:20;4.78;;;0.90;;
55539;SDS011;41384;51.418;7.286;2022-12-29T12:04:01;6.90;;;1.65;;
55539;SDS011;41384;51.418;7.286;2022-12-29T12:06:33;6.43;;;0.90;;
55539;SDS011;41384;51.418;7.286;2022-12-29T12:09:14;5.47;;;0.85;;
55539;SDS011;41384;51.418;7.286;2022-12-29T12:11:43;4.05;;;0.95;;
55539;SDS011;41384;51.418;7.286;2022-12-29T12:16:48;2.72;;;0.85;;
55539;SDS011;41384;51.418;7.286;2022-12-29T12:22:08;4.78;;;0.93;;
55539;SDS011;41384;51.418;7.286;2022-12-29T12:27:11;3.15;;;0.77;;
55539;SDS011;41384;51.418;7.286;2022-12-29T12:32:17;4.93;;;0.80;;
55539;SDS011;41384;51.418;7.286;2022-12-29T12:34:48;8.73;;;1.55;;
55539;SDS011;41384;51.418;7.286;2022-12-29T12:40:16;10.02;;;0.90;;
55539;SDS011;41384;51.418;7.286;2022-12-29T12:43:23;2.58;;;0.70;;
55539;SDS011;41384;51.418;7.286;2022-12-29T12:46:25;6.03;;;0.90;;
55539;SDS011;41384;51.418;7.286;2022-12-29T12:51:39;6.20;;;1.00;;
55539;SDS011;41384;51.418;7.286;2022-12-29T12:56:43;4.50;;;0.85;;
55539;SDS011;41384;51.418;7.286;2022-12-29T12:59:36;2.35;;;0.80;;
55539;SDS011;41384;51.418;7.286;2022-12-29T13:07:59;3.50;;;0.95;;
55539;SDS011;41384;51.418;7.286;2022-12-29T13:10:45;4.80;;;1.08;;
55539;SDS011;41384;51.418;7.286;2022-12-29T13:16:23;5.65;;;1.55;;
55539;SDS011;41384;51.418;7.286;2022-12-29T13:24:48;5.72;;;1.00;;
55539;SDS011;41384;51.418;7.286;2022-12-29T13:30:00;3.05;;;0.85;;
55539;SDS011;41384;51.418;7.286;2022-12-29T13:33:10;6.85;;;1.20;;
55539;SDS011;41384;51.418;7.286;2022-12-29T13:38:15;3.70;;;0.85;;
55539;SDS011;41384;51.418;7.286;2022-12-29T13:40:47;3.00;;;0.70;;
55539;SDS011;41384;51.418;7.286;2022-12-29T13:43:18;4.53;;;0.68;;
55539;SDS011;41384;51.418;7.286;2022-12-29T13:45:48;8.70;;;0.90;;
55539;SDS011;41384;51.418;7.286;2022-12-29T13:48:23;5.05;;;0.98;;
55539;SDS011;41384;51.418;7.286;2022-12-29T13:51:00;4.50;;;0.80;;
55539;SDS011;41384;51.418;7.286;2022-12-29T13:56:15;3.80;;;0.65;;
55539;SDS011;41384;51.418;7.286;2022-12-29T13:58:48;4.63;;;0.63;;
55539;SDS011;41384;51.418;7.286;2022-12-29T14:03:57;7.15;;;0.93;;
55539;SDS011;41384;51.418;7.286;2022-12-29T14:06:28;3.40;;;1.00;;
55539;SDS011;41384;51.418;7.286;2022-12-29T14:08:58;3.78;;;0.95;;
55539;SDS011;41384;51.418;7.286;2022-12-29T14:11:32;3.03;;;0.90;;
55539;SDS011;41384;51.418;7.286;2022-12-29T14:14:10;3.38;;;0.70;;
55539;SDS011;41384;51.418;7.286;2022-12-29T14:16:39;5.45;;;0.95;;
55539;SDS011;41384;51.418;7.286;2022-12-29T14:19:13;4.88;;;1.13;;
55539;SDS011;41384;51.418;7.286;2022-12-29T14:21:49;6.10;;;1.15;;
55539;SDS011;41384;51.418;7.286;2022-12-29T14:27:00;5.57;;;1.00;;
55539;SDS011;41384;51.418;7.286;2022-12-29T14:29:49;4.68;;;1.20;;
55539;SDS011;41384;51.418;7.286;2022-12-29T14:35:00;3.47;;;0.80;;
55539;SDS011;41384;51.418;7.286;2022-12-29T14:37:45;6.38;;;0.90;;
55539;SDS011;41384;51.418;7.286;2022-12-29T14:40:17;4.78;;;0.80;;
55539;SDS011;41384;51.418;7.286;2022-12-29T14:42:48;4.95;;;0.77;;
55539;SDS011;41384;51.418;7.286;2022-12-29T14:47:45;5.60;;;0.90;;
55539;SDS011;41384;51.418;7.286;2022-12-29T14:52:47;3.95;;;0.75;;
55539;SDS011;41384;51.418;7.286;2022-12-29T14:55:38;2.20;;;0.60;;
55539;SDS011;41384;51.418;7.286;2022-12-29T14:58:05;1.33;;;0.82;;
55539;SDS011;41384;51.418;7.286;2022-12-29T15:00:36;4.70;;;0.70;;
55539;SDS011;41384;51.418;7.286;2022-12-29T15:05:37;5.38;;;0.90;;
55539;SDS011;41384;51.418;7.286;2022-12-29T15:08:08;2.78;;;0.65;;
55539;SDS011;41384;51.418;7.286;2022-12-29T15:10:38;2.15;;;0.57;;
55539;SDS011;41384;51.418;7.286;2022-12-29T15:15:40;4.07;;;0.90;;
55539;SDS011;41384;51.418;7.286;2022-12-29T15:18:22;1.42;;;0.50;;
55539;SDS011;41384;51.418;7.286;2022-12-29T15:20:57;3.45;;;0.63;;
55539;SDS011;41384;51.418;7.286;2022-12-29T15:23:24;4.60;;;0.70;;
55539;SDS011;41384;51.418;7.286;2022-12-29T15:25:58;2.80;;;0.73;;
55539;SDS011;41384;51.418;7.286;2022-12-29T15:28:24;2.05;;;0.80;;
55539;SDS011;41384;51.418;7.286;2022-12-29T15:31:01;2.13;;;0.80;;
55539;SDS011;41384;51.418;7.286;2022-12-29T15:33:28;2.83;;;0.80;;
55539;SDS011;41384;51.418;7.286;2022-12-29T15:35:54;2.90;;;0.60;;
55539;SDS011;41384;51.418;7.286;2022-12-29T15:38:23;3.72;;;0.98;;
55539;SDS011;41384;51.418;7.286;2022-12-29T15:41:02;4.30;;;1.00;;
55539;SDS011;41384;51.418;7.286;2022-12-29T15:46:33;3.10;;;0.57;;
55539;SDS011;41384;51.418;7.286;2022-12-29T15:48:59;4.97;;;1.15;;
55539;SDS011;41384;51.418;7.286;2022-12-29T15:53:50;3.72;;;0.98;;
55539;SDS011;41384;51.418;7.286;2022-12-29T15:56:16;5.95;;;0.82;;
55539;SDS011;41384;51.418;7.286;2022-12-29T15:58:43;4.70;;;0.77;;
55539;SDS011;41384;51.418;7.286;2022-12-29T16:04:02;4.20;;;0.88;;
55539;SDS011;41384;51.418;7.286;2022-12-29T16:06:37;4.05;;;0.80;;
55539;SDS011;41384;51.418;7.286;2022-12-29T16:09:05;4.75;;;1.13;;
55539;SDS011;41384;51.418;7.286;2022-12-29T16:11:53;2.53;;;0.85;;
55539;SDS011;41384;51.418;7.286;2022-12-29T16:14:23;3.65;;;0.60;;
55539;SDS011;41384;51.418;7.286;2022-12-29T16:16:55;3.38;;;0.75;;
55539;SDS011;41384;51.418;7.286;2022-12-29T16:19:27;6.10;;;1.05;;
55539;SDS011;41384;51.418;7.286;2022-12-29T16:21:57;2.05;;;0.93;;
55539;SDS011;41384;51.418;7.286;2022-12-29T16:24:26;3.83;;;0.88;;
55539;SDS011;41384;51.418;7.286;2022-12-29T16:29:29;4.35;;;0.98;;
55539;SDS011;41384;51.418;7.286;2022-12-29T16:31:56;2.13;;;0.70;;
55539;SDS011;41384;51.418;7.286;2022-12-29T16:34:32;2.33;;;0.73;;
55539;SDS011;41384;51.418;7.286;2022-12-29T16:39:46;6.20;;;0.95;;
55539;SDS011;41384;51.418;7.286;2022-12-29T16:48:36;3.03;;;1.05;;
55539;SDS011;41384;51.418;7.286;2022-12-29T16:51:16;3.35;;;0.93;;
55539;SDS011;41384;51.418;7.286;2022-12-29T16:53:53;6.47;;;1.42;;
55539;SDS011;41384;51.418;7.286;2022-12-29T16:56:20;4.65;;;1.20;;
55539;SDS011;41384;51.418;7.286;2022-12-29T16:58:53;3.97;;;0.93;;
55539;SDS011;41384;51.418;7.286;2022-12-29T17:01:26;7.57;;;0.95;;
55539;SDS011;41384;51.418;7.286;2022-12-29T17:03:53;7.07;;;1.40;;
55539;SDS011;41384;51.418;7.286;2022-12-29T17:06:22;6.53;;;1.40;;
55539;SDS011;41384;51.418;7.286;2022-12-29T17:08:48;2.95;;;1.10;;
55539;SDS011;41384;51.418;7.286;2022-12-29T17:11:31;4.65;;;0.82;;
55539;SDS011;41384;51.418;7.286;2022-12-29T17:17:05;4.93;;;1.05;;
55539;SDS011;41384;51.418;7.286;2022-12-29T17:22:09;7.20;;;1.02;;